Time;durP1;ratioP1;P1;durP2;ratioP2;P2;SDS_P1;SDS_P2;PMS_P1;PMS_P2;Temp;Humidity;BMP_temperature;BMP_pressure;BME280_temperature;BME280_humidity;BME280_pressure;Samples;Min_cycle;Max_cycle;Signal;HPM_P1;HPM_P2
2022/03/05 00:00:50;;;;;;;19.88;10.60;;;4.00;65.80;;;;;;5028240;28;20590;-66
2022/03/05 00:03:16;;;;;;;20.83;10.50;;;4.00;65.80;;;;;;5028222;28;20053;-66
2022/03/05 00:05:41;;;;;;;20.85;11.05;;;4.00;65.70;;;;;;5028008;28;20113;-66
2022/03/05 00:08:07;;;;;;;21.20;11.57;;;4.00;66.00;;;;;;5028318;28;20032;-66
2022/03/05 00:10:33;;;;;;;25.30;13.02;;;4.00;66.40;;;;;;5028069;28;20083;-66
2022/03/05 00:12:59;;;;;;;18.67;10.95;;;3.90;67.10;;;;;;5028229;28;20022;-66
2022/03/05 00:15:25;;;;;;;23.98;12.43;;;3.80;66.90;;;;;;5027839;28;20044;-66
2022/03/05 00:17:52;;;;;;;18.92;10.80;;;3.80;67.30;;;;;;5028148;28;20401;-66
2022/03/05 00:20:18;;;;;;;24.92;13.40;;;3.80;67.20;;;;;;5018430;28;20029;-66
2022/03/05 00:22:45;;;;;;;21.85;12.10;;;3.70;68.50;;;;;;5027907;28;20461;-66
2022/03/05 00:25:12;;;;;;;22.83;11.82;;;3.60;68.20;;;;;;5027901;28;20025;-66
2022/03/05 00:27:38;;;;;;;22.08;13.23;;;3.60;68.10;;;;;;5028100;28;20075;-66
2022/03/05 00:30:04;;;;;;;25.30;13.85;;;3.60;68.50;;;;;;5030611;28;20026;-66
2022/03/05 00:32:29;;;;;;;24.67;13.20;;;3.50;69.10;;;;;;5031540;28;20031;-66
2022/03/05 00:34:55;;;;;;;23.88;12.63;;;3.40;69.30;;;;;;5031500;28;20033;-66
2022/03/05 00:37:21;;;;;;;21.10;11.68;;;3.40;69.30;;;;;;5031433;28;20029;-66
2022/03/05 00:39:46;;;;;;;21.70;11.38;;;3.40;69.10;;;;;;5028682;28;20033;-66
2022/03/05 00:42:13;;;;;;;20.38;10.85;;;3.30;69.00;;;;;;5031506;28;20056;-66
2022/03/05 00:44:39;;;;;;;20.98;10.57;;;3.30;68.80;;;;;;5031616;28;20558;-66
2022/03/05 00:47:05;;;;;;;20.45;10.13;;;3.30;68.70;;;;;;5031226;28;20521;-66
2022/03/05 00:49:30;;;;;;;22.70;12.38;;;3.30;68.50;;;;;;5031202;28;20054;-66
2022/03/05 00:51:56;;;;;;;19.35;10.00;;;3.30;68.70;;;;;;5031223;28;20060;-66
2022/03/05 00:54:22;;;;;;;18.02;9.90;;;3.20;68.60;;;;;;5030841;28;20033;-66
2022/03/05 00:56:47;;;;;;;19.58;10.00;;;3.20;68.50;;;;;;5031422;28;20021;-66
2022/03/05 00:59:13;;;;;;;22.08;10.90;;;3.20;68.50;;;;;;5030995;28;20419;-66
2022/03/05 01:01:39;;;;;;;22.55;11.43;;;3.10;68.50;;;;;;5031109;28;20071;-66
2022/03/05 01:04:05;;;;;;;18.88;9.40;;;3.10;68.40;;;;;;5031094;28;20025;-66
2022/03/05 01:06:31;;;;;;;16.90;9.93;;;3.10;68.30;;;;;;5004211;28;20087;-66
2022/03/05 01:08:58;;;;;;;15.73;8.40;;;3.10;68.20;;;;;;5031347;28;20025;-66
2022/03/05 01:11:23;;;;;;;21.30;10.07;;;3.00;68.10;;;;;;5031359;28;20021;-66
2022/03/05 01:13:49;;;;;;;17.05;8.80;;;3.00;68.20;;;;;;5012921;28;20040;-66
2022/03/05 01:16:14;;;;;;;17.25;9.45;;;3.00;68.20;;;;;;5030621;28;20018;-66
2022/03/05 01:18:40;;;;;;;15.40;8.95;;;3.00;68.20;;;;;;5030949;28;20116;-66
2022/03/05 01:21:06;;;;;;;17.45;9.65;;;2.90;68.00;;;;;;5030399;28;20470;-66
2022/03/05 01:23:32;;;;;;;16.25;8.80;;;2.90;68.10;;;;;;5030626;28;20099;-66
2022/03/05 01:25:58;;;;;;;16.63;8.65;;;2.90;68.00;;;;;;5030584;28;20021;-66
2022/03/05 01:28:23;;;;;;;17.27;8.75;;;2.90;68.00;;;;;;5030343;28;20568;-66
2022/03/05 01:30:49;;;;;;;17.58;8.98;;;2.80;68.10;;;;;;5030525;28;20029;-66
2022/03/05 01:33:17;;;;;;;16.42;9.00;;;2.70;68.10;;;;;;5030745;28;20350;-66
2022/03/05 01:35:44;;;;;;;16.45;8.55;;;2.70;68.20;;;;;;5030079;28;20068;-66
2022/03/05 01:38:09;;;;;;;17.92;9.43;;;2.70;68.30;;;;;;5030365;28;20409;-66
2022/03/05 01:40:35;;;;;;;18.13;9.27;;;2.60;68.30;;;;;;5030085;28;20037;-66
2022/03/05 01:43:01;;;;;;;24.02;11.70;;;2.60;68.40;;;;;;5030453;28;20018;-66
2022/03/05 01:45:27;;;;;;;19.15;10.27;;;2.60;68.80;;;;;;5012184;28;20021;-66
2022/03/05 01:47:52;;;;;;;22.10;10.93;;;2.50;68.80;;;;;;5030088;28;20042;-66
2022/03/05 01:50:18;;;;;;;23.10;12.60;;;2.50;69.10;;;;;;5029915;28;20031;-66
2022/03/05 01:52:45;;;;;;;24.20;12.55;;;2.40;69.50;;;;;;5029934;28;20029;-66
2022/03/05 01:55:12;;;;;;;25.67;12.38;;;2.40;69.90;;;;;;5029827;28;20083;-66
2022/03/05 01:57:38;;;;;;;21.30;12.70;;;2.40;69.90;;;;;;5030013;28;20101;-66
2022/03/05 02:00:06;;;;;;;23.13;11.85;;;2.30;69.80;;;;;;5030026;28;20025;-66
2022/03/05 02:02:32;;;;;;;23.15;11.80;;;2.30;70.30;;;;;;5029763;28;20029;-66
2022/03/05 02:04:57;;;;;;;28.48;13.00;;;2.30;70.40;;;;;;5014758;28;20018;-66
2022/03/05 02:07:23;;;;;;;21.70;11.35;;;2.30;70.60;;;;;;5011933;28;20036;-66
2022/03/05 02:09:49;;;;;;;26.35;12.82;;;2.20;70.60;;;;;;5030420;28;20029;-66
2022/03/05 02:12:14;;;;;;;23.75;11.55;;;2.20;70.70;;;;;;5029656;28;20026;-66
2022/03/05 02:14:40;;;;;;;22.90;11.70;;;2.20;70.90;;;;;;5029930;28;20041;-66
2022/03/05 02:17:05;;;;;;;27.05;13.10;;;2.10;71.00;;;;;;5029248;28;20128;-66
2022/03/05 02:19:31;;;;;;;24.25;12.40;;;2.10;71.20;;;;;;5029347;28;20041;-66
2022/03/05 02:21:56;;;;;;;23.73;13.00;;;2.00;71.40;;;;;;5029635;28;20017;-66
2022/03/05 02:24:31;;;;;;;24.52;11.07;;;1.90;71.30;;;;;;5029551;28;20536;-66
2022/03/05 02:27:04;;;;;;;18.75;10.23;;;1.90;71.40;;;;;;5029760;28;20043;-66
2022/03/05 02:29:34;;;;;;;23.10;11.60;;;1.90;71.30;;;;;;5029263;28;20406;-66
2022/03/05 02:32:00;;;;;;;20.95;10.85;;;1.80;71.30;;;;;;5029361;28;20168;-66
2022/03/05 02:34:26;;;;;;;22.40;11.43;;;1.80;71.30;;;;;;5029164;28;20436;-66
2022/03/05 02:36:51;;;;;;;19.48;9.73;;;1.80;71.40;;;;;;5029288;28;20512;-66
2022/03/05 02:39:17;;;;;;;25.15;12.75;;;1.80;71.30;;;;;;5011298;28;20030;-66
2022/03/05 02:41:43;;;;;;;25.60;11.68;;;1.70;71.60;;;;;;5028888;28;20378;-66
2022/03/05 02:44:10;;;;;;;21.73;11.95;;;1.70;71.70;;;;;;5029173;28;20507;-66
2022/03/05 02:46:36;;;;;;;22.00;11.35;;;1.60;71.70;;;;;;5028802;28;20107;-66
2022/03/05 02:49:03;;;;;;;21.95;12.40;;;1.60;71.70;;;;;;5029408;28;20076;-66
2022/03/05 02:51:29;;;;;;;20.35;10.95;;;1.60;71.80;;;;;;5028723;28;20017;-66
2022/03/05 02:53:55;;;;;;;22.08;10.98;;;1.60;71.70;;;;;;5029061;28;20476;-66
2022/03/05 02:56:20;;;;;;;22.52;10.93;;;1.60;71.70;;;;;;5010926;28;20045;-66
2022/03/05 02:58:46;;;;;;;23.70;12.23;;;1.50;71.60;;;;;;5028784;28;20017;-66
2022/03/05 03:01:12;;;;;;;21.40;11.02;;;1.50;71.90;;;;;;5011082;28;20071;-66
2022/03/05 03:03:38;;;;;;;27.20;13.18;;;1.40;72.00;;;;;;5028813;28;20025;-66
2022/03/05 03:06:05;;;;;;;29.38;13.18;;;1.40;72.20;;;;;;5028775;28;20115;-66
2022/03/05 03:08:30;;;;;;;25.08;12.50;;;1.30;72.50;;;;;;5028713;28;20421;-66
2022/03/05 03:10:56;;;;;;;31.95;15.20;;;1.30;72.70;;;;;;5028778;28;20026;-66
2022/03/05 03:13:22;;;;;;;27.50;13.77;;;1.30;73.20;;;;;;5028845;28;20096;-66
2022/03/05 03:15:48;;;;;;;27.17;14.18;;;1.20;73.40;;;;;;5026655;28;20080;-66
2022/03/05 03:18:16;;;;;;;26.83;13.63;;;1.20;73.50;;;;;;5028620;28;20038;-66
2022/03/05 03:20:42;;;;;;;26.70;13.80;;;1.20;74.40;;;;;;5028897;28;20395;-66
2022/03/05 03:23:08;;;;;;;26.65;14.07;;;1.20;73.80;;;;;;5026005;28;20035;-66
2022/03/05 03:25:33;;;;;;;27.23;14.27;;;1.20;73.80;;;;;;5028467;28;20033;-66
2022/03/05 03:27:59;;;;;;;30.10;14.85;;;1.20;73.90;;;;;;5028848;28;20029;-66
2022/03/05 03:30:24;;;;;;;30.17;15.40;;;1.20;74.00;;;;;;5028207;28;20428;-66
2022/03/05 03:32:50;;;;;;;32.80;15.88;;;1.20;74.20;;;;;;5028597;28;20481;-66
2022/03/05 03:35:16;;;;;;;35.28;16.10;;;1.20;74.50;;;;;;5028476;28;20432;-66
2022/03/05 03:37:42;;;;;;;35.88;17.55;;;1.10;74.90;;;;;;5028425;28;20124;-66
2022/03/05 03:40:10;;;;;;;34.53;16.00;;;1.10;75.40;;;;;;5025521;28;20029;-66
2022/03/05 03:42:37;;;;;;;35.25;17.13;;;1.10;75.70;;;;;;5028368;28;20523;-66
2022/03/05 03:45:04;;;;;;;32.40;16.08;;;1.00;75.90;;;;;;5028154;28;20021;-66
2022/03/05 03:47:30;;;;;;;34.65;16.65;;;0.90;76.20;;;;;;5028276;28;20128;-66
2022/03/05 03:49:56;;;;;;;32.17;16.42;;;0.90;76.30;;;;;;5028539;28;20121;-65
2022/03/05 03:52:22;;;;;;;29.40;14.25;;;0.90;76.40;;;;;;5028299;28;20025;-66
2022/03/05 03:54:48;;;;;;;34.10;16.90;;;0.80;76.50;;;;;;5028187;28;20029;-66
2022/03/05 03:57:14;;;;;;;33.72;16.55;;;0.80;76.70;;;;;;5028149;28;20135;-66
2022/03/05 03:59:40;;;;;;;36.47;16.33;;;0.70;76.70;;;;;;5028717;28;20104;-66
2022/03/05 04:02:06;;;;;;;32.10;16.67;;;0.70;76.90;;;;;;5028133;28;20492;-66
2022/03/05 04:04:32;;;;;;;31.83;16.00;;;0.70;77.20;;;;;;5030501;28;20033;-66
2022/03/05 04:09:41;;;;;;;32.83;17.05;;;0.70;77.60;;;;;;5032021;28;20040;-66
2022/03/05 04:12:08;;;;;;;33.90;16.63;;;0.70;77.90;;;;;;5008714;28;20029;-66
2022/03/05 04:14:34;;;;;;;35.80;17.25;;;0.60;77.80;;;;;;5031801;28;20388;-66
2022/03/05 04:17:00;;;;;;;34.72;17.38;;;0.60;78.10;;;;;;5013964;28;20036;-66
2022/03/05 04:19:26;;;;;;;38.03;17.38;;;0.60;78.20;;;;;;5016816;28;20112;-66
2022/03/05 04:21:51;;;;;;;35.13;17.80;;;0.60;78.40;;;;;;5031729;28;20022;-66
2022/03/05 04:24:17;;;;;;;43.88;20.75;;;0.50;78.80;;;;;;5031716;28;20037;-66
2022/03/05 04:26:42;;;;;;;43.05;18.48;;;0.50;79.40;;;;;;5031552;28;20030;-66
2022/03/05 04:29:08;;;;;;;42.05;19.75;;;0.50;79.90;;;;;;5031498;28;20052;-66
2022/03/05 04:31:34;;;;;;;38.58;19.45;;;0.50;79.90;;;;;;5031871;28;20103;-66
2022/03/05 04:33:59;;;;;;;37.08;17.88;;;0.50;80.20;;;;;;5011305;28;20021;-66
2022/03/05 04:36:25;;;;;;;40.22;18.95;;;0.50;80.20;;;;;;5010838;28;20022;-66
2022/03/05 04:38:50;;;;;;;40.22;18.92;;;0.50;80.20;;;;;;5031478;28;20029;-66
2022/03/05 04:41:16;;;;;;;44.03;20.90;;;0.50;80.40;;;;;;5031326;28;20068;-66
2022/03/05 04:43:41;;;;;;;48.65;23.10;;;0.50;80.50;;;;;;5013400;28;20037;-66
2022/03/05 04:46:07;;;;;;;39.92;20.27;;;0.40;81.00;;;;;;5016210;28;20033;-66
2022/03/05 04:48:33;;;;;;;37.20;18.00;;;0.40;81.30;;;;;;5031065;28;20386;-66
2022/03/05 04:50:58;;;;;;;40.50;18.88;;;0.40;81.30;;;;;;5014011;28;20116;-66
2022/03/05 04:53:24;;;;;;;39.58;19.15;;;0.40;81.30;;;;;;5031180;28;20457;-66
2022/03/05 04:55:50;;;;;;;40.63;17.95;;;0.30;81.40;;;;;;5031136;28;20040;-66
2022/03/05 04:58:17;;;;;;;42.60;20.52;;;0.30;81.50;;;;;;5031068;28;20025;-66
2022/03/05 05:00:42;;;;;;;44.05;21.08;;;0.30;81.60;;;;;;5031114;28;20029;-66
2022/03/05 05:03:08;;;;;;;37.38;17.67;;;0.30;81.70;;;;;;5031183;28;20034;-66
2022/03/05 05:05:33;;;;;;;36.70;18.08;;;0.30;81.70;;;;;;5031001;28;20082;-66
2022/03/05 05:07:59;;;;;;;40.53;18.60;;;0.30;81.80;;;;;;5031030;28;20551;-66
2022/03/05 05:10:24;;;;;;;44.95;20.15;;;0.30;81.80;;;;;;5012882;28;20026;-66
2022/03/05 05:12:50;;;;;;;41.60;19.17;;;0.20;82.10;;;;;;5031159;28;20468;-66
2022/03/05 05:15:16;;;;;;;42.17;18.67;;;0.20;82.20;;;;;;5012347;28;20033;-66
2022/03/05 05:17:42;;;;;;;43.22;20.05;;;0.20;82.30;;;;;;5030691;28;20040;-66
2022/03/05 05:20:09;;;;;;;43.10;19.10;;;0.20;82.50;;;;;;5030606;28;20511;-66
2022/03/05 05:22:35;;;;;;;48.72;20.35;;;0.20;82.60;;;;;;5030895;28;20156;-66
2022/03/05 05:25:00;;;;;;;43.55;19.55;;;0.10;82.80;;;;;;5030689;28;20401;-66
2022/03/05 05:27:27;;;;;;;42.97;19.02;;;0.10;82.90;;;;;;5030543;28;20385;-66
2022/03/05 05:29:52;;;;;;;42.67;19.75;;;0.10;83.00;;;;;;5030511;28;20032;-67
2022/03/05 05:32:18;;;;;;;42.63;18.92;;;0.10;83.00;;;;;;5030555;28;20029;-67
2022/03/05 05:34:44;;;;;;;40.33;19.85;;;0.10;82.90;;;;;;5030895;28;20651;-67
2022/03/05 05:37:10;;;;;;;40.70;19.40;;;0.10;82.90;;;;;;5030823;28;20381;-67
2022/03/05 05:39:36;;;;;;;44.50;20.13;;;0.10;83.00;;;;;;5030014;28;20033;-67
2022/03/05 05:42:02;;;;;;;40.05;18.70;;;0.10;83.20;;;;;;5028831;28;20028;-67
2022/03/05 05:44:28;;;;;;;41.75;20.20;;;0.00;83.30;;;;;;5030014;28;20148;-67
2022/03/05 05:46:53;;;;;;;41.42;19.77;;;0.00;83.50;;;;;;5030261;28;20478;-67
2022/03/05 05:49:19;;;;;;;39.50;18.77;;;0.00;83.60;;;;;;5029946;28;20097;-66
2022/03/05 05:51:45;;;;;;;41.63;19.25;;;0.00;83.60;;;;;;5029866;28;20127;-67
2022/03/05 05:54:11;;;;;;;47.63;20.35;;;0.00;83.80;;;;;;5030031;28;20087;-67
2022/03/05 05:56:37;;;;;;;47.80;20.52;;;0.00;84.10;;;;;;5029936;28;20037;-67
2022/03/05 05:59:04;;;;;;;47.45;21.42;;;0.00;84.40;;;;;;5029894;28;20104;-67
2022/03/05 06:01:30;;;;;;;48.63;21.20;;;-0.10;84.70;;;;;;5027248;28;20052;-67
2022/03/05 06:03:56;;;;;;;42.33;19.63;;;0.00;84.90;;;;;;5030218;28;20468;-67
2022/03/05 06:06:22;;;;;;;38.35;18.40;;;-0.10;84.90;;;;;;5029717;28;20026;-67
2022/03/05 06:08:48;;;;;;;41.30;18.85;;;0.00;84.90;;;;;;5029554;28;20473;-67
2022/03/05 06:11:14;;;;;;;40.58;18.92;;;0.00;84.80;;;;;;5009303;28;20033;-67
2022/03/05 06:13:40;;;;;;;44.55;19.00;;;0.00;84.80;;;;;;5029675;28;20026;-67
2022/03/05 06:16:06;;;;;;;46.25;20.63;;;-0.10;84.80;;;;;;5029350;28;20037;-67
2022/03/05 06:18:32;;;;;;;44.10;18.38;;;-0.10;85.10;;;;;;5011582;28;20033;-67
2022/03/05 06:20:57;;;;;;;45.13;19.20;;;-0.10;85.20;;;;;;5011915;28;20378;-67
2022/03/05 06:23:24;;;;;;;45.80;19.90;;;-0.10;85.30;;;;;;5032743;28;20041;-66
2022/03/05 06:25:51;;;;;;;49.67;21.75;;;-0.10;85.40;;;;;;5032967;28;20678;-67
2022/03/05 06:28:17;;;;;;;44.30;20.25;;;-0.10;85.60;;;;;;5014498;28;20021;-67
2022/03/05 06:30:42;;;;;;;44.85;18.67;;;-0.10;85.70;;;;;;5032306;28;20029;-66
2022/03/05 06:33:08;;;;;;;41.10;18.67;;;-0.10;85.70;;;;;;5013471;28;20143;-67
2022/03/05 06:35:33;;;;;;;45.45;17.90;;;-0.10;85.50;;;;;;5032840;28;20103;-67
2022/03/05 06:37:59;;;;;;;39.88;18.50;;;-0.10;85.50;;;;;;5032707;28;20048;-67
2022/03/05 06:40:24;;;;;;;43.75;18.73;;;-0.10;85.50;;;;;;5015456;28;20083;-67
2022/03/05 06:42:51;;;;;;;41.00;18.05;;;-0.10;85.50;;;;;;5032632;28;20105;-67
2022/03/05 06:45:16;;;;;;;41.25;18.10;;;-0.10;85.50;;;;;;5014898;28;20032;-66
2022/03/05 06:47:42;;;;;;;42.75;18.70;;;-0.10;85.40;;;;;;5032950;28;20046;-66
2022/03/05 06:50:11;;;;;;;40.70;17.35;;;0.00;86.00;;;;;;5033009;28;20051;-67
2022/03/05 06:52:37;;;;;;;35.95;15.95;;;0.00;85.30;;;;;;5032623;28;20397;-67
2022/03/05 06:55:03;;;;;;;38.33;17.30;;;0.00;85.20;;;;;;5032494;28;20030;-67
2022/03/05 06:57:29;;;;;;;37.95;16.33;;;0.00;85.00;;;;;;5032436;28;20033;-67
2022/03/05 06:59:55;;;;;;;37.00;15.25;;;0.10;85.00;;;;;;5031938;28;20361;-66
2022/03/05 07:02:21;;;;;;;33.00;16.20;;;0.10;84.90;;;;;;5032210;28;20052;-66
2022/03/05 07:04:47;;;;;;;36.60;15.65;;;0.10;84.80;;;;;;5032962;28;20109;-66
2022/03/05 07:07:12;;;;;;;40.55;17.48;;;0.10;84.80;;;;;;5032953;28;20060;-66
2022/03/05 07:09:38;;;;;;;37.78;15.50;;;0.20;84.70;;;;;;5032682;28;20388;-66
2022/03/05 07:12:05;;;;;;;33.05;14.75;;;0.20;84.30;;;;;;5032833;28;20395;-66
2022/03/05 07:14:31;;;;;;;38.83;16.08;;;0.20;84.70;;;;;;5032603;28;20040;-66
2022/03/05 07:16:56;;;;;;;41.65;17.42;;;0.20;84.60;;;;;;5032722;28;20025;-66
2022/03/05 07:19:22;;;;;;;38.90;17.73;;;0.20;84.60;;;;;;5014552;28;20018;-66
2022/03/05 07:21:48;;;;;;;35.58;16.30;;;0.20;84.60;;;;;;5032597;28;20025;-66
2022/03/05 07:24:13;;;;;;;43.28;18.45;;;0.20;84.50;;;;;;5032195;28;20037;-66
2022/03/05 07:26:39;;;;;;;40.40;17.88;;;0.30;84.50;;;;;;5032272;28;20032;-66
2022/03/05 07:29:05;;;;;;;40.78;17.88;;;0.30;84.50;;;;;;5030862;28;20380;-66
2022/03/05 07:31:30;;;;;;;46.42;17.20;;;0.30;84.60;;;;;;5030622;28;20061;-66
2022/03/05 07:33:56;;;;;;;47.78;21.10;;;0.40;84.70;;;;;;5031904;28;20064;-66
2022/03/05 07:36:22;;;;;;;42.60;19.08;;;0.40;84.90;;;;;;5029618;28;20021;-66
2022/03/05 07:38:47;;;;;;;43.35;17.00;;;0.50;84.90;;;;;;5013706;28;20030;-66
2022/03/05 07:41:13;;;;;;;39.40;17.40;;;0.50;84.80;;;;;;5019658;28;20033;-66
2022/03/05 07:43:39;;;;;;;38.15;17.92;;;0.50;84.70;;;;;;5034137;28;20033;-66
2022/03/05 07:46:05;;;;;;;42.65;18.20;;;0.60;84.70;;;;;;5034887;28;20469;-66
2022/03/05 07:48:31;;;;;;;34.60;16.33;;;0.70;84.60;;;;;;5034508;28;20056;-66
2022/03/05 07:50:59;;;;;;;37.95;16.50;;;0.70;84.50;;;;;;5028229;28;20021;-66
2022/03/05 07:53:28;;;;;;;38.15;15.75;;;0.80;84.50;;;;;;5034256;28;20083;-66
2022/03/05 07:55:54;;;;;;;36.67;16.08;;;0.90;84.40;;;;;;5035662;28;20060;-66
2022/03/05 07:58:20;;;;;;;42.30;18.50;;;0.90;84.30;;;;;;5036170;28;20033;-66
2022/03/05 08:00:45;;;;;;;32.72;15.77;;;1.00;84.30;;;;;;5036040;28;20032;-66
2022/03/05 08:03:11;;;;;;;48.28;20.00;;;1.00;84.30;;;;;;5033995;28;20032;-66
2022/03/05 08:05:36;;;;;;;42.25;17.85;;;1.10;84.50;;;;;;5033927;28;20113;-66
2022/03/05 08:08:02;;;;;;;45.03;20.95;;;1.10;84.40;;;;;;5014626;28;20441;-66
2022/03/05 08:10:28;;;;;;;40.47;17.90;;;1.20;84.70;;;;;;5034290;28;20531;-66
2022/03/05 08:12:54;;;;;;;40.08;18.05;;;1.20;84.60;;;;;;5034345;28;20051;-66
2022/03/05 08:15:20;;;;;;;41.90;18.27;;;1.30;84.70;;;;;;5035079;28;20051;-66
2022/03/05 08:17:53;;;;;;;42.53;19.42;;;1.40;84.60;;;;;;5035244;28;20052;-66
2022/03/05 08:20:19;;;;;;;55.00;21.60;;;1.50;84.90;;;;;;5029624;28;20017;-66
2022/03/05 08:22:45;;;;;;;45.28;19.38;;;1.50;85.30;;;;;;5035553;28;20086;-66
2022/03/05 08:25:12;;;;;;;48.58;21.27;;;1.60;85.10;;;;;;5035813;28;20029;-66
2022/03/05 08:27:38;;;;;;;58.38;23.83;;;1.70;85.10;;;;;;5033270;28;20501;-67
2022/03/05 08:30:04;;;;;;;56.80;23.35;;;1.70;85.00;;;;;;5013719;28;20417;-67
2022/03/05 08:32:30;;;;;;;47.15;20.92;;;1.80;84.90;;;;;;5033903;28;20022;-66
2022/03/05 08:34:55;;;;;;;48.25;21.77;;;1.80;84.80;;;;;;5034035;28;20036;-66
2022/03/05 08:37:21;;;;;;;49.67;22.20;;;1.90;84.70;;;;;;5032892;28;20035;-66
2022/03/05 08:39:46;;;;;;;47.13;21.15;;;2.00;84.60;;;;;;5031851;28;20028;-66
2022/03/05 08:42:12;;;;;;;46.83;20.70;;;2.00;84.50;;;;;;5031648;28;20527;-66
2022/03/05 08:44:37;;;;;;;54.55;23.65;;;2.10;84.40;;;;;;5032847;28;20389;-66
2022/03/05 08:47:03;;;;;;;54.60;23.02;;;2.20;84.10;;;;;;5032828;28;20503;-66
2022/03/05 08:49:29;;;;;;;52.72;23.48;;;2.20;84.00;;;;;;5032573;28;20049;-67
2022/03/05 08:51:54;;;;;;;48.28;21.42;;;2.30;84.00;;;;;;5034543;28;20079;-67
2022/03/05 08:54:20;;;;;;;62.17;25.98;;;2.40;83.80;;;;;;5033410;28;20071;-67
2022/03/05 08:56:47;;;;;;;49.08;22.17;;;2.40;83.20;;;;;;5035181;28;20066;-67
2022/03/05 08:59:13;;;;;;;41.92;19.27;;;2.50;83.20;;;;;;5017168;28;20476;-66
2022/03/05 09:01:39;;;;;;;39.92;18.48;;;2.60;83.00;;;;;;5034765;28;20078;-67
2022/03/05 09:04:05;;;;;;;41.63;19.52;;;2.70;82.80;;;;;;5035029;28;20392;-66
2022/03/05 09:06:30;;;;;;;43.47;19.63;;;2.80;82.60;;;;;;5033566;28;20392;-67
2022/03/05 09:08:57;;;;;;;47.65;23.13;;;3.00;82.40;;;;;;5034643;28;20488;-67
2022/03/05 09:11:22;;;;;;;44.38;19.65;;;3.00;81.60;;;;;;5034771;28;20030;-67
2022/03/05 09:13:48;;;;;;;44.08;19.83;;;3.10;81.50;;;;;;5034834;28;20032;-67
2022/03/05 09:16:15;;;;;;;52.95;23.98;;;3.20;81.30;;;;;;5034512;28;20049;-67
2022/03/05 09:18:40;;;;;;;45.65;22.10;;;3.30;80.90;;;;;;5034733;28;20032;-67
2022/03/05 09:21:07;;;;;;;47.08;21.88;;;3.30;80.40;;;;;;5034449;28;20030;-66
2022/03/05 09:23:32;;;;;;;41.05;20.42;;;3.40;80.30;;;;;;5034773;28;20030;-66
2022/03/05 09:25:58;;;;;;;46.72;21.40;;;3.50;80.10;;;;;;5034638;28;20040;-67
2022/03/05 09:28:24;;;;;;;47.22;22.60;;;3.60;79.90;;;;;;5033190;28;20029;-66
2022/03/05 09:30:49;;;;;;;47.15;22.00;;;3.80;79.70;;;;;;5033570;28;20041;-66
2022/03/05 09:33:15;;;;;;;47.42;22.70;;;3.80;79.40;;;;;;5032799;28;20025;-67
2022/03/05 09:35:41;;;;;;;47.30;22.17;;;3.90;78.70;;;;;;5032692;28;20076;-67
2022/03/05 09:38:06;;;;;;;40.10;19.80;;;4.00;78.10;;;;;;5032552;28;20052;-66
2022/03/05 09:40:32;;;;;;;44.72;20.13;;;4.10;78.00;;;;;;5032588;28;20049;-66
2022/03/05 09:43:00;;;;;;;50.72;22.65;;;4.20;77.50;;;;;;5032379;28;20071;-66
2022/03/05 09:45:26;;;;;;;50.65;23.95;;;4.30;77.00;;;;;;5032102;28;20022;-66
2022/03/05 09:47:51;;;;;;;51.15;22.83;;;4.40;76.70;;;;;;5020041;28;20493;-66
2022/03/05 09:50:17;;;;;;;51.47;22.23;;;4.50;76.50;;;;;;5032479;28;20060;-66
2022/03/05 09:52:42;;;;;;;44.78;21.60;;;4.50;75.30;;;;;;5032575;28;20041;-67
2022/03/05 09:55:09;;;;;;;49.25;23.13;;;4.70;76.00;;;;;;5032352;28;20159;-66
2022/03/05 09:57:34;;;;;;;42.10;20.92;;;4.90;75.40;;;;;;5032568;28;20026;-66
2022/03/05 10:00:01;;;;;;;45.03;21.88;;;5.10;74.60;;;;;;5032204;28;20028;-66
2022/03/05 10:02:26;;;;;;;51.28;24.48;;;5.20;74.00;;;;;;5032193;28;20017;-67
2022/03/05 10:05:26;;;;;;;40.22;20.17;;;5.30;72.60;;;;;;5032367;28;20103;-67
2022/03/05 10:08:08;;;;;;;37.47;17.48;;;5.50;73.30;;;;;;5029897;28;20028;-67
2022/03/05 10:10:44;;;;;;;30.90;16.63;;;5.80;72.70;;;;;;5032082;28;20124;-67
2022/03/05 10:13:28;;;;;;;41.13;20.85;;;6.10;72.60;;;;;;5029371;28;20389;-67
2022/03/05 10:15:59;;;;;;;42.65;21.35;;;6.30;69.90;;;;;;5031448;28;20030;-66
2022/03/05 10:18:30;;;;;;;37.60;19.05;;;6.40;69.10;;;;;;5031468;28;20893;-67
2022/03/05 10:20:56;;;;;;;31.00;16.90;;;6.70;69.50;;;;;;5028420;28;20079;-66
2022/03/05 10:23:22;;;;;;;27.75;15.77;;;7.00;69.60;;;;;;5030463;28;20024;-67
2022/03/05 10:25:53;;;;;;;31.00;15.52;;;7.30;69.60;;;;;;5031593;28;20013;-67
2022/03/05 10:28:27;;;;;;;30.95;16.55;;;7.70;69.00;;;;;;5033057;28;20444;-67
2022/03/05 10:31:08;;;;;;;26.70;13.82;;;8.10;68.70;;;;;;5033447;28;20041;-67
2022/03/05 10:33:38;;;;;;;29.23;15.02;;;8.60;68.50;;;;;;5033378;28;20033;-67
2022/03/05 10:36:24;;;;;;;25.80;14.70;;;9.00;68.10;;;;;;5033521;28;20477;-67
2022/03/05 10:38:57;;;;;;;23.20;11.85;;;9.60;69.30;;;;;;5033452;28;20034;-67
2022/03/05 10:41:33;;;;;;;27.70;15.95;;;10.60;72.20;;;;;;5033020;28;20018;-67
2022/03/05 10:44:18;;;;;;;25.85;15.43;;;13.70;67.40;;;;;;5031117;28;20025;-67
2022/03/05 10:46:58;;;;;;;20.38;12.77;;;17.50;60.20;;;;;;5028036;28;20033;-67
2022/03/05 10:49:26;;;;;;;20.75;13.52;;;20.80;53.80;;;;;;5030700;28;20060;-68
2022/03/05 10:52:03;;;;;;;19.33;13.43;;;23.60;49.00;;;;;;5003084;28;20052;-68
2022/03/05 10:54:39;;;;;;;22.25;16.08;;;26.30;43.90;;;;;;5025032;28;20436;-68
2022/03/05 10:57:22;;;;;;;20.27;13.93;;;28.60;39.50;;;;;;5013800;28;20021;-68
2022/03/05 10:59:50;;;;;;;19.70;13.40;;;30.50;36.60;;;;;;5031688;28;20049;-67
2022/03/05 11:02:19;;;;;;;16.23;12.73;;;32.30;35.00;;;;;;5032879;28;20511;-68
2022/03/05 11:04:45;;;;;;;15.50;11.57;;;33.70;33.50;;;;;;5032878;28;20060;-68
2022/03/05 11:07:12;;;;;;;19.63;15.35;;;35.00;32.10;;;;;;5032915;28;20065;-68
2022/03/05 11:09:39;;;;;;;14.85;12.32;;;35.50;30.10;;;;;;5032820;28;20032;-68
2022/03/05 11:12:09;;;;;;;15.88;13.85;;;36.00;29.70;;;;;;5032338;28;20511;-68
2022/03/05 11:14:36;;;;;;;15.70;13.50;;;37.00;29.10;;;;;;5032654;28;20048;-68
2022/03/05 11:17:04;;;;;;;15.95;13.50;;;38.10;28.20;;;;;;5031132;28;20045;-68
2022/03/05 11:19:30;;;;;;;16.48;14.15;;;38.70;28.00;;;;;;5031056;28;20021;-69
2022/03/05 11:21:57;;;;;;;14.80;13.30;;;39.20;27.20;;;;;;5030956;28;20032;-68
2022/03/05 11:24:23;;;;;;;14.82;13.23;;;39.70;26.90;;;;;;5030884;28;20035;-69
2022/03/05 11:26:51;;;;;;;16.25;14.55;;;39.90;26.50;;;;;;5026947;28;20021;-69
2022/03/05 11:29:23;;;;;;;15.02;13.43;;;40.10;26.10;;;;;;5030888;28;20029;-68
2022/03/05 11:31:49;;;;;;;14.63;13.20;;;40.70;26.10;;;;;;5031153;28;20030;-69
2022/03/05 11:34:23;;;;;;;17.42;15.50;;;41.20;25.30;;;;;;5030967;28;20044;-69
2022/03/05 11:36:52;;;;;;;16.15;14.55;;;41.80;25.30;;;;;;5030997;28;20014;-69
2022/03/05 11:39:28;;;;;;;15.85;14.25;;;42.30;25.00;;;;;;5030714;28;20029;-68
2022/03/05 11:42:05;;;;;;;16.33;14.63;;;42.80;24.80;;;;;;5030978;28;20392;-69
2022/03/05 11:44:41;;;;;;;15.05;13.55;;;43.40;24.50;;;;;;5028260;28;20389;-69
2022/03/05 11:47:19;;;;;;;17.90;15.83;;;44.00;24.30;;;;;;5031882;28;20042;-69
2022/03/05 11:49:59;;;;;;;16.15;14.55;;;44.50;24.00;;;;;;5032552;28;20037;-69
2022/03/05 11:52:41;;;;;;;16.98;15.35;;;44.70;23.80;;;;;;5032253;28;20109;-69
2022/03/05 11:55:18;;;;;;;17.02;15.32;;;44.10;23.30;;;;;;5031698;28;20473;-69
2022/03/05 11:57:50;;;;;;;16.17;14.65;;;44.10;23.30;;;;;;5032155;28;20076;-68
2022/03/05 12:00:25;;;;;;;16.38;14.68;;;44.20;23.40;;;;;;5032218;28;20036;-69
2022/03/05 12:02:51;;;;;;;16.80;15.05;;;44.60;23.20;;;;;;5032313;28;20025;-69
2022/03/05 12:05:36;;;;;;;15.83;13.90;;;44.90;23.00;;;;;;5032293;28;20039;-69
2022/03/05 12:08:04;;;;;;;16.85;15.20;;;44.80;22.90;;;;;;5032264;28;20025;-69
2022/03/05 12:10:30;;;;;;;16.92;15.23;;;44.40;22.70;;;;;;5032234;28;20040;-69
2022/03/05 12:13:02;;;;;;;17.10;15.40;;;44.20;22.60;;;;;;5030153;28;20076;-68
2022/03/05 12:15:31;;;;;;;16.70;15.00;;;43.70;22.70;;;;;;5027906;28;20125;-68
2022/03/05 12:17:57;;;;;;;16.85;15.23;;;43.60;22.70;;;;;;5027901;28;20477;-69
2022/03/05 12:20:27;;;;;;;17.65;15.77;;;43.20;22.70;;;;;;5027513;28;20026;-69
2022/03/05 12:23:00;;;;;;;16.88;15.25;;;42.50;22.70;;;;;;5027760;28;20033;-69
2022/03/05 12:25:28;;;;;;;16.55;14.93;;;42.30;22.80;;;;;;5030027;28;20049;-69
2022/03/05 12:27:55;;;;;;;17.27;15.45;;;42.30;23.00;;;;;;5032423;28;20076;-69
2022/03/05 12:30:31;;;;;;;17.42;15.73;;;42.40;22.90;;;;;;5019971;28;20145;-69
2022/03/05 12:33:01;;;;;;;16.70;15.00;;;42.10;22.80;;;;;;5032524;28;20100;-68
2022/03/05 12:35:27;;;;;;;16.10;14.40;;;41.80;23.00;;;;;;5029907;28;20025;-69
2022/03/05 12:37:54;;;;;;;17.38;15.45;;;41.60;23.10;;;;;;5032649;28;20489;-69